Time;durP1;ratioP1;P1;durP2;ratioP2;P2;SDS_P1;SDS_P2;PMS_P1;PMS_P2;Temp;Humidity;BMP_temperature;BMP_pressure;BME280_temperature;BME280_humidity;BME280_pressure;Samples;Min_cycle;Max_cycle;Signal;HPM_P1;HPM_P2
2022/06/06 00:02:19;;;;;;;;;16.67;14.67;;;;;;;;5038253;28;45288;-78
2022/06/06 00:04:44;;;;;;;;;15.00;15.00;;;;;;;;5039330;28;45255;-77
2022/06/06 00:07:11;;;;;;;;;16.67;10.67;;;;;;;;5038844;28;45511;-78
2022/06/06 00:09:37;;;;;;;;;14.00;11.67;;;;;;;;5038813;28;45353;-77
2022/06/06 00:12:03;;;;;;;;;12.67;12.33;;;;;;;;5039197;28;45359;-78
2022/06/06 00:14:28;;;;;;;;;13.00;11.33;;;;;;;;5038938;28;45345;-77
2022/06/06 00:16:57;;;;;;;;;9.67;9.67;;;;;;;;5038596;28;45351;-77
2022/06/06 00:19:24;;;;;;;;;13.67;13.00;;;;;;;;5038943;28;45318;-75
2022/06/06 00:21:52;;;;;;;;;12.33;12.33;;;;;;;;5038770;28;45483;-78
2022/06/06 00:24:18;;;;;;;;;16.33;10.67;;;;;;;;5038973;28;45324;-78
2022/06/06 00:26:43;;;;;;;;;10.00;10.00;;;;;;;;5038573;28;45397;-78
2022/06/06 00:29:09;;;;;;;;;11.00;10.00;;;;;;;;5039238;28;45412;-77
2022/06/06 00:37:04;;;;;;;;;8.00;7.00;;;;;;;;5038705;28;45324;-76
2022/06/06 00:39:29;;;;;;;;;12.00;8.67;;;;;;;;5038719;28;45472;-75
2022/06/06 00:41:55;;;;;;;;;8.00;6.00;;;;;;;;5052035;28;45445;-76
2022/06/06 00:44:23;;;;;;;;;8.33;5.00;;;;;;;;5038899;28;45224;-77
2022/06/06 00:46:56;;;;;;;;;7.67;7.67;;;;;;;;5038269;28;45239;-77
2022/06/06 00:49:24;;;;;;;;;3.67;3.67;;;;;;;;5038582;28;45303;-77
2022/06/06 00:51:50;;;;;;;;;5.00;5.00;;;;;;;;5038727;28;45434;-78
2022/06/06 00:54:15;;;;;;;;;7.00;4.33;;;;;;;;5038707;28;45356;-77
2022/06/06 00:56:50;;;;;;;;;6.33;5.00;;;;;;;;5037518;28;46342;-77
2022/06/06 00:59:21;;;;;;;;;4.33;4.33;;;;;;;;5037616;28;45365;-77
2022/06/06 01:01:50;;;;;;;;;7.33;5.33;;;;;;;;5037703;28;45509;-78
2022/06/06 01:04:18;;;;;;;;;5.67;4.33;;;;;;;;5038229;28;45333;-78
2022/06/06 01:06:45;;;;;;;;;2.25;2.25;;;;;;;;5038072;28;45273;-77
2022/06/06 01:09:10;;;;;;;;;4.00;4.00;;;;;;;;5038104;28;45427;-78
2022/06/06 01:11:37;;;;;;;;;4.00;4.00;;;;;;;;5037108;28;45849;-77
2022/06/06 01:14:04;;;;;;;;;4.50;3.00;;;;;;;;5038133;28;45445;-76
2022/06/06 01:16:33;;;;;;;;;5.33;4.00;;;;;;;;5037606;28;45594;-76
2022/06/06 01:19:09;;;;;;;;;5.25;4.00;;;;;;;;5037724;28;45484;-76
2022/06/06 01:21:37;;;;;;;;;3.75;2.50;;;;;;;;5038228;28;45301;-77
2022/06/06 01:24:08;;;;;;;;;4.00;3.00;;;;;;;;5037837;28;45428;-75
2022/06/06 01:26:55;;;;;;;;;3.25;1.75;;;;;;;;5036417;28;45689;-76
2022/06/06 01:29:23;;;;;;;;;5.25;2.50;;;;;;;;5037675;28;45532;-76
2022/06/06 01:31:57;;;;;;;;;3.50;3.00;;;;;;;;5037670;28;45391;-76
2022/06/06 01:34:34;;;;;;;;;2.00;2.00;;;;;;;;5037842;28;45329;-75
2022/06/06 01:37:00;;;;;;;;;2.25;2.25;;;;;;;;5037586;28;45443;-77
2022/06/06 01:39:27;;;;;;;;;2.75;2.00;;;;;;;;5036511;28;45486;-76
2022/06/06 01:42:06;;;;;;;;;2.50;2.50;;;;;;;;5036909;28;45442;-76
2022/06/06 01:44:34;;;;;;;;;2.25;2.00;;;;;;;;5036228;28;45441;-74
2022/06/06 01:47:03;;;;;;;;;2.00;2.00;;;;;;;;5035463;28;45477;-76
2022/06/06 01:49:29;;;;;;;;;2.00;2.00;;;;;;;;5036392;28;45472;-77
2022/06/06 01:52:02;;;;;;;;;3.75;2.50;;;;;;;;5035914;28;45528;-77
2022/06/06 01:54:27;;;;;;;;;3.00;2.75;;;;;;;;5035839;28;45626;-77
2022/06/06 01:56:53;;;;;;;;;5.25;3.00;;;;;;;;5036107;28;46670;-77
2022/06/06 01:59:22;;;;;;;;;3.50;2.50;;;;;;;;5036979;28;45286;-76
2022/06/06 02:01:47;;;;;;;;;3.25;2.00;;;;;;;;5037061;28;45422;-76
2022/06/06 02:04:12;;;;;;;;;3.25;3.00;;;;;;;;5037688;28;45358;-76
2022/06/06 02:06:38;;;;;;;;;3.67;3.67;;;;;;;;5037192;28;46423;-76
2022/06/06 02:09:03;;;;;;;;;3.25;3.25;;;;;;;;5037342;28;45153;-78
2022/06/06 02:11:29;;;;;;;;;4.00;4.00;;;;;;;;5037040;28;45867;-77
2022/06/06 02:13:56;;;;;;;;;5.67;4.33;;;;;;;;5037140;28;45378;-77
2022/06/06 02:16:25;;;;;;;;;5.67;5.00;;;;;;;;5017281;28;46395;-75
2022/06/06 02:18:51;;;;;;;;;4.00;2.75;;;;;;;;5025099;28;45496;-76
2022/06/06 02:21:18;;;;;;;;;3.33;3.33;;;;;;;;5037293;28;45298;-76
2022/06/06 02:23:43;;;;;;;;;7.33;5.33;;;;;;;;5036762;28;45576;-78
2022/06/06 02:26:09;;;;;;;;;8.67;5.00;;;;;;;;5036863;28;45464;-78
2022/06/06 02:28:37;;;;;;;;;7.33;5.00;;;;;;;;5037290;28;45251;-77
2022/06/06 02:31:03;;;;;;;;;7.00;6.00;;;;;;;;5037265;28;45719;-77
2022/06/06 02:33:31;;;;;;;;;6.33;6.33;;;;;;;;5037189;28;45297;-76
2022/06/06 02:35:59;;;;;;;;;6.67;5.33;;;;;;;;5036919;28;45440;-77
2022/06/06 02:38:25;;;;;;;;;11.00;7.67;;;;;;;;5036537;28;45457;-77
2022/06/06 02:40:50;;;;;;;;;8.33;8.33;;;;;;;;5036823;28;45350;-77
2022/06/06 02:43:15;;;;;;;;;9.00;9.00;;;;;;;;5037227;28;45537;-78
2022/06/06 02:45:51;;;;;;;;;;;;;;;;;;;;;
2022/06/06 02:48:19;;;;;;;;;8.67;7.00;;;;;;;;5030251;28;74025;-77
2022/06/06 02:50:44;;;;;;;;;6.00;6.00;;;;;;;;5036502;28;45503;-77
2022/06/06 02:53:10;;;;;;;;;9.00;8.67;;;;;;;;5036901;28;45264;-78
2022/06/06 02:55:35;;;;;;;;;8.67;8.33;;;;;;;;5036893;28;46193;-76
2022/06/06 02:58:03;;;;;;;;;9.67;7.33;;;;;;;;5037001;28;45405;-76
2022/06/06 03:00:30;;;;;;;;;6.33;6.33;;;;;;;;5040345;28;45246;-78
2022/06/06 03:02:57;;;;;;;;;12.33;9.33;;;;;;;;5040429;28;45448;-78
2022/06/06 03:05:28;;;;;;;;;7.33;7.33;;;;;;;;5039468;28;45767;-78
2022/06/06 03:07:54;;;;;;;;;6.00;6.00;;;;;;;;5040227;28;45396;-75
2022/06/06 03:10:38;;;;;;;;;7.00;7.00;;;;;;;;5040092;28;45184;-74
2022/06/06 03:13:03;;;;;;;;;8.33;7.00;;;;;;;;5039462;28;45680;-76
2022/06/06 03:15:40;;;;;;;;;8.00;7.67;;;;;;;;5039786;28;46177;-76
2022/06/06 03:20:56;;;;;;;;;10.00;8.00;;;;;;;;5040009;28;45239;-76
2022/06/06 03:23:22;;;;;;;;;10.67;8.67;;;;;;;;5040214;28;45646;-77
2022/06/06 03:26:06;;;;;;;;;10.33;8.00;;;;;;;;5039844;28;45374;-78
2022/06/06 03:28:31;;;;;;;;;7.67;7.00;;;;;;;;5039517;28;45282;-77
2022/06/06 03:31:03;;;;;;;;;9.33;8.00;;;;;;;;5039709;28;45214;-78
2022/06/06 03:33:37;;;;;;;;;9.00;7.33;;;;;;;;5039913;28;45360;-76
2022/06/06 03:36:17;;;;;;;;;6.33;6.33;;;;;;;;5038263;28;46333;-77
2022/06/06 03:39:00;;;;;;;;;7.67;7.67;;;;;;;;5039689;28;45290;-78
2022/06/06 03:41:32;;;;;;;;;9.00;7.00;;;;;;;;5038654;28;45501;-76
2022/06/06 03:44:06;;;;;;;;;8.00;8.00;;;;;;;;5039681;28;45374;-76
2022/06/06 03:46:40;;;;;;;;;12.67;10.67;;;;;;;;5038716;28;46425;-75
2022/06/06 03:49:08;;;;;;;;;10.00;10.00;;;;;;;;5038726;28;45579;-76
2022/06/06 03:51:40;;;;;;;;;9.33;8.33;;;;;;;;5039442;28;45302;-77
2022/06/06 03:54:14;;;;;;;;;13.33;10.00;;;;;;;;5039540;28;45586;-77
2022/06/06 03:56:52;;;;;;;;;10.67;10.33;;;;;;;;5038379;28;46375;-77
2022/06/06 03:59:19;;;;;;;;;12.33;10.67;;;;;;;;5038593;28;45499;-75
2022/06/06 04:01:48;;;;;;;;;11.00;11.00;;;;;;;;5039250;28;45226;-75
2022/06/06 04:04:14;;;;;;;;;13.00;12.00;;;;;;;;5039455;28;45378;-76
2022/06/06 04:06:41;;;;;;;;;10.33;10.33;;;;;;;;5038807;28;45273;-76
2022/06/06 04:09:09;;;;;;;;;8.33;8.33;;;;;;;;5038311;28;45324;-75
2022/06/06 04:11:35;;;;;;;;;12.67;8.33;;;;;;;;5038929;28;45407;-76
2022/06/06 04:14:24;;;;;;;;;3.33;3.33;;;;;;;;5039039;28;45445;-75
2022/06/06 04:16:49;;;;;;;;;11.00;9.00;;;;;;;;5039049;28;45466;-74
2022/06/06 04:19:17;;;;;;;;;7.33;7.33;;;;;;;;5038866;28;45225;-76
2022/06/06 04:21:52;;;;;;;;;9.00;9.00;;;;;;;;5038326;28;45310;-75
2022/06/06 04:24:39;;;;;;;;;6.25;6.25;;;;;;;;5039028;28;45321;-76
2022/06/06 04:27:04;;;;;;;;;9.67;8.67;;;;;;;;5036050;28;46272;-76
2022/06/06 04:29:40;;;;;;;;;7.67;7.67;;;;;;;;5037702;28;45937;-76
2022/06/06 04:32:24;;;;;;;;;8.33;8.00;;;;;;;;5038951;28;45388;-75
2022/06/06 04:34:49;;;;;;;;;7.67;6.00;;;;;;;;5038933;28;45278;-77
2022/06/06 04:37:34;;;;;;;;;9.33;6.33;;;;;;;;5036999;28;45679;-76
2022/06/06 04:39:59;;;;;;;;;8.00;8.00;;;;;;;;5038490;28;45351;-75
2022/06/06 04:42:33;;;;;;;;;7.67;7.67;;;;;;;;5038433;28;45396;-75
2022/06/06 04:45:36;;;;;;;;;7.67;7.00;;;;;;;;5038678;28;45508;-76
2022/06/06 04:48:04;;;;;;;;;6.00;6.00;;;;;;;;5016077;28;46040;-76
2022/06/06 04:50:30;;;;;;;;;7.33;4.67;;;;;;;;5000806;28;45590;-77
2022/06/06 04:52:56;;;;;;;;;7.00;7.00;;;;;;;;4996431;28;45756;-77
2022/06/06 04:55:25;;;;;;;;;9.00;6.33;;;;;;;;4996101;28;45490;-76
2022/06/06 04:57:55;;;;;;;;;5.00;5.00;;;;;;;;4998595;28;46507;-77
2022/06/06 05:00:20;;;;;;;;;6.67;5.67;;;;;;;;5015697;28;45335;-76
2022/06/06 05:02:46;;;;;;;;;7.00;6.00;;;;;;;;5016033;28;45421;-74
2022/06/06 05:05:11;;;;;;;;;7.33;6.00;;;;;;;;5016217;28;45449;-78
2022/06/06 05:07:52;;;;;;;;;5.33;5.33;;;;;;;;5014249;28;46588;-78
2022/06/06 05:10:19;;;;;;;;;8.67;7.67;;;;;;;;5016039;28;45362;-75
2022/06/06 05:12:48;;;;;;;;;6.75;6.75;;;;;;;;5015151;28;45453;-75
2022/06/06 05:15:25;;;;;;;;;6.00;4.50;;;;;;;;5016067;28;45581;-75
2022/06/06 05:18:04;;;;;;;;;6.00;6.00;;;;;;;;5018036;28;46544;-77
2022/06/06 05:20:38;;;;;;;;;6.33;6.33;;;;;;;;5036330;28;45483;-76
2022/06/06 05:23:24;;;;;;;;;7.00;6.50;;;;;;;;5038132;28;45380;-78
2022/06/06 05:25:52;;;;;;;;;10.00;7.33;;;;;;;;5055842;28;45567;-77
2022/06/06 05:28:19;;;;;;;;;6.00;3.75;;;;;;;;5055146;28;46261;-77
2022/06/06 05:30:45;;;;;;;;;9.00;9.00;;;;;;;;5049507;28;45382;-75
2022/06/06 05:33:28;;;;;;;;;12.33;11.67;;;;;;;;5035171;28;45294;-75
2022/06/06 05:35:59;;;;;;;;;6.75;6.75;;;;;;;;5035764;28;45339;-76
2022/06/06 05:38:44;;;;;;;;;9.33;9.00;;;;;;;;5035436;28;47483;-75
2022/06/06 05:41:10;;;;;;;;;12.33;7.33;;;;;;;;5035427;28;45388;-77
2022/06/06 05:43:40;;;;;;;;;12.00;11.00;;;;;;;;5035332;28;45438;-77
2022/06/06 05:46:29;;;;;;;;;12.00;9.67;;;;;;;;5045868;28;45541;-77
2022/06/06 05:48:54;;;;;;;;;14.00;9.00;;;;;;;;4955985;28;47332;-74
2022/06/06 05:51:23;;;;;;;;;7.33;7.33;;;;;;;;4956103;28;45450;-75
2022/06/06 05:54:06;;;;;;;;;10.00;10.00;;;;;;;;4956512;28;45579;-77
2022/06/06 05:56:38;;;;;;;;;11.33;9.33;;;;;;;;4956356;28;45554;-75
2022/06/06 05:59:21;;;;;;;;;8.33;6.33;;;;;;;;4955910;28;45391;-77
2022/06/06 06:01:46;;;;;;;;;18.00;16.67;;;;;;;;4956087;28;45438;-77
2022/06/06 06:04:29;;;;;;;;;10.67;10.00;;;;;;;;4937145;28;45305;-77
2022/06/06 06:07:00;;;;;;;;;7.67;6.00;;;;;;;;4936548;28;45941;-73
2022/06/06 06:09:55;;;;;;;;;8.75;8.00;;;;;;;;4936045;28;46373;-76
2022/06/06 06:12:35;;;;;;;;;8.67;8.67;;;;;;;;4917124;28;45380;-75
2022/06/06 06:15:19;;;;;;;;;9.67;8.67;;;;;;;;4917640;28;45386;-76
2022/06/06 06:17:48;;;;;;;;;7.67;7.67;;;;;;;;4917643;28;45595;-77
2022/06/06 06:20:16;;;;;;;;;9.67;7.67;;;;;;;;4917508;28;46349;-76
2022/06/06 06:22:49;;;;;;;;;7.67;7.00;;;;;;;;4917303;28;45274;-74
2022/06/06 06:25:15;;;;;;;;;8.00;8.00;;;;;;;;4925375;28;45456;-74
2022/06/06 06:27:42;;;;;;;;;6.67;6.67;;;;;;;;4955778;28;45425;-76
2022/06/06 06:30:08;;;;;;;;;11.33;11.33;;;;;;;;4955485;28;46413;-78
2022/06/06 06:32:52;;;;;;;;;8.67;6.00;;;;;;;;4955327;28;45296;-76
2022/06/06 06:35:20;;;;;;;;;6.00;4.33;;;;;;;;4959263;28;45411;-76
2022/06/06 06:37:55;;;;;;;;;10.67;10.00;;;;;;;;4959824;28;45616;-74
2022/06/06 06:40:27;;;;;;;;;8.67;7.33;;;;;;;;4943132;28;45326;-73
2022/06/06 06:42:56;;;;;;;;;5.33;4.00;;;;;;;;4939753;28;45542;-75
2022/06/06 06:45:23;;;;;;;;;5.00;5.00;;;;;;;;4946076;28;45527;-74
2022/06/06 06:47:52;;;;;;;;;8.67;8.67;;;;;;;;4959445;28;45272;-76
2022/06/06 06:50:20;;;;;;;;;8.50;5.00;;;;;;;;5039063;28;46253;-74
2022/06/06 06:52:51;;;;;;;;;7.67;7.00;;;;;;;;5040324;28;45361;-74
2022/06/06 06:55:18;;;;;;;;;4.25;4.25;;;;;;;;5038954;28;45281;-75
2022/06/06 06:57:52;;;;;;;;;4.75;4.75;;;;;;;;5038826;28;45391;-75
2022/06/06 07:00:19;;;;;;;;;4.50;4.50;;;;;;;;5037323;28;46744;-73
2022/06/06 07:08:42;;;;;;;;;3.75;3.75;;;;;;;;5040596;28;45329;-76
2022/06/06 07:11:23;;;;;;;;;8.33;7.00;;;;;;;;5039933;28;47491;-77
2022/06/06 07:13:57;;;;;;;;;5.67;4.33;;;;;;;;5039546;28;45363;-77
2022/06/06 07:16:24;;;;;;;;;5.50;5.50;;;;;;;;5048647;28;45475;-78
2022/06/06 07:18:52;;;;;;;;;5.00;5.00;;;;;;;;5060177;28;45313;-77
2022/06/06 07:21:18;;;;;;;;;4.50;4.50;;;;;;;;5059960;28;47477;-76
2022/06/06 07:23:44;;;;;;;;;4.67;4.67;;;;;;;;5060096;28;45397;-77
2022/06/06 07:26:10;;;;;;;;;3.00;3.00;;;;;;;;5060268;28;45438;-78
2022/06/06 07:28:36;;;;;;;;;4.00;4.00;;;;;;;;5060328;28;45286;-78
2022/06/06 07:31:01;;;;;;;;;4.67;3.67;;;;;;;;5050203;28;45342;-78
2022/06/06 07:33:49;;;;;;;;;4.25;3.50;;;;;;;;5038950;28;45535;-76
2022/06/06 07:36:26;;;;;;;;;4.00;4.00;;;;;;;;5039724;28;45784;-75
2022/06/06 07:38:54;;;;;;;;;2.75;2.75;;;;;;;;5039803;28;45320;-78
2022/06/06 07:41:39;;;;;;;;;5.50;4.25;;;;;;;;5039397;28;46627;-75
2022/06/06 07:44:23;;;;;;;;;4.00;2.50;;;;;;;;5038213;28;45238;-75
2022/06/06 07:47:00;;;;;;;;;2.50;2.50;;;;;;;;5033426;28;45423;-77
2022/06/06 07:49:46;;;;;;;;;3.00;3.00;;;;;;;;5039134;28;45433;-76
2022/06/06 07:52:18;;;;;;;;;4.75;4.75;;;;;;;;5039124;28;46807;-77
2022/06/06 07:54:48;;;;;;;;;4.75;3.00;;;;;;;;5039067;28;45357;-77
2022/06/06 07:57:19;;;;;;;;;3.00;3.00;;;;;;;;5038928;28;45393;-77
2022/06/06 07:59:45;;;;;;;;;3.25;3.25;;;;;;;;5039325;28;45231;-75
2022/06/06 08:02:11;;;;;;;;;4.25;2.50;;;;;;;;5038833;28;46456;-76
2022/06/06 08:04:39;;;;;;;;;2.00;2.00;;;;;;;;5038837;28;45947;-76
2022/06/06 08:07:13;;;;;;;;;2.50;2.00;;;;;;;;5038774;28;45471;-76
2022/06/06 08:09:58;;;;;;;;;3.25;3.25;;;;;;;;5039129;28;45384;-75
2022/06/06 08:12:30;;;;;;;;;5.00;3.00;;;;;;;;5034482;28;46694;-77
2022/06/06 08:15:12;;;;;;;;;2.00;2.00;;;;;;;;5038596;28;45397;-75
2022/06/06 08:17:47;;;;;;;;;1.75;1.75;;;;;;;;5038582;28;45244;-76
2022/06/06 08:20:12;;;;;;;;;4.50;3.75;;;;;;;;5037937;28;45334;-77
2022/06/06 08:22:42;;;;;;;;;3.00;2.00;;;;;;;;5038578;28;46605;-77
2022/06/06 08:25:08;;;;;;;;;2.00;2.00;;;;;;;;5037976;28;45504;-77
2022/06/06 08:27:35;;;;;;;;;2.25;2.25;;;;;;;;5038505;28;45917;-76
2022/06/06 08:30:01;;;;;;;;;1.00;1.00;;;;;;;;5038551;28;45329;-76
2022/06/06 08:32:27;;;;;;;;;2.00;2.00;;;;;;;;5038314;28;46606;-75
2022/06/06 08:34:54;;;;;;;;;6.00;2.00;;;;;;;;5038130;28;45290;-77
2022/06/06 08:37:19;;;;;;;;;2.00;2.00;;;;;;;;5042595;28;45325;-76
2022/06/06 08:39:44;;;;;;;;;2.00;2.00;;;;;;;;5038440;28;45428;-75
2022/06/06 08:42:21;;;;;;;;;2.50;2.50;;;;;;;;5038540;28;46472;-74
2022/06/06 08:44:52;;;;;;;;;2.00;2.00;;;;;;;;5037808;28;45814;-74
2022/06/06 08:47:32;;;;;;;;;2.00;2.00;;;;;;;;5037674;28;45368;-74
2022/06/06 08:52:56;;;;;;;;;0.00;0.00;;;;;;;;5037699;28;45684;-74
2022/06/06 08:55:44;;;;;;;;;1.50;0.00;;;;;;;;5037407;28;45533;-74
2022/06/06 08:58:22;;;;;;;;;1.00;1.00;;;;;;;;5014382;28;45520;-73
2022/06/06 09:01:01;;;;;;;;;3.00;2.00;;;;;;;;5013648;28;45479;-72
2022/06/06 09:03:30;;;;;;;;;3.25;2.00;;;;;;;;5014961;28;46777;-79
2022/06/06 09:06:13;;;;;;;;;1.00;1.00;;;;;;;;5014735;28;45706;-81
2022/06/06 09:08:51;;;;;;;;;1.25;1.25;;;;;;;;5010647;28;45624;-79
2022/06/06 09:11:31;;;;;;;;;2.00;2.00;;;;;;;;5010678;28;45593;-73
2022/06/06 09:14:14;;;;;;;;;1.00;1.00;;;;;;;;5015016;28;46546;-67
2022/06/06 09:16:39;;;;;;;;;0.75;0.50;;;;;;;;5029498;28;45461;-75
2022/06/06 09:19:15;;;;;;;;;2.00;2.00;;;;;;;;5011087;28;45365;-76
2022/06/06 09:21:40;;;;;;;;;1.50;1.50;;;;;;;;5002248;28;45766;-74
2022/06/06 09:24:24;;;;;;;;;1.00;1.00;;;;;;;;4995788;28;45391;-74
2022/06/06 09:27:08;;;;;;;;;2.00;2.00;;;;;;;;4994948;28;45723;-76
2022/06/06 09:29:33;;;;;;;;;2.25;1.00;;;;;;;;4999820;28;45490;-75
2022/06/06 09:32:04;;;;;;;;;1.00;1.00;;;;;;;;5002787;28;45605;-74
2022/06/06 09:34:30;;;;;;;;;2.00;1.00;;;;;;;;5002033;28;46490;-76
2022/06/06 09:37:13;;;;;;;;;2.33;1.00;;;;;;;;5015577;28;45477;-76
2022/06/06 09:39:51;;;;;;;;;2.33;1.00;;;;;;;;5017750;28;45168;-76
2022/06/06 09:42:16;;;;;;;;;0.00;0.00;;;;;;;;5018014;28;45394;-76
2022/06/06 09:44:57;;;;;;;;;1.00;1.00;;;;;;;;5017588;28;46658;-76
2022/06/06 09:47:25;;;;;;;;;2.33;0.00;;;;;;;;5016630;28;45458;-76
2022/06/06 09:49:56;;;;;;;;;1.00;1.00;;;;;;;;5017418;28;45257;-76
2022/06/06 09:52:36;;;;;;;;;0.00;0.00;;;;;;;;5016828;28;45433;-76
2022/06/06 10:01:01;;;;;;;;;0.00;0.00;;;;;;;;5036478;28;45492;-76
2022/06/06 10:03:26;;;;;;;;;0.00;0.00;;;;;;;;5036880;28;45614;-75
2022/06/06 10:06:15;;;;;;;;;0.00;0.00;;;;;;;;5037018;28;45491;-76
2022/06/06 10:08:40;;;;;;;;;1.00;1.00;;;;;;;;5014599;28;45516;-78
2022/06/06 10:11:11;;;;;;;;;2.00;0.67;;;;;;;;5017472;28;45610;-78
2022/06/06 10:13:52;;;;;;;;;1.00;1.00;;;;;;;;5027964;28;45397;-77
2022/06/06 10:16:20;;;;;;;;;2.00;2.00;;;;;;;;5032821;28;45713;-77
2022/06/06 10:18:48;;;;;;;;;1.00;1.00;;;;;;;;5027554;28;45493;-77
2022/06/06 10:21:30;;;;;;;;;1.00;1.00;;;;;;;;5024762;28;45512;-78
2022/06/06 10:24:02;;;;;;;;;1.00;0.00;;;;;;;;5016175;28;45319;-78
2022/06/06 10:26:46;;;;;;;;;1.00;1.00;;;;;;;;5024993;28;46400;-77
2022/06/06 10:32:30;;;;;;;;;4.00;1.00;;;;;;;;4946377;28;45538;-79
2022/06/06 10:35:04;;;;;;;;;1.33;1.00;;;;;;;;4937301;28;45463;-75
2022/06/06 10:37:36;;;;;;;;;2.00;1.00;;;;;;;;4935621;28;46412;-76
2022/06/06 10:40:02;;;;;;;;;1.00;0.00;;;;;;;;4935772;28;45407;-77
2022/06/06 10:42:27;;;;;;;;;5.00;3.00;;;;;;;;4935890;28;45571;-76
2022/06/06 10:44:58;;;;;;;;;1.00;1.00;;;;;;;;4935932;28;45817;-76
2022/06/06 10:47:45;;;;;;;;;0.00;0.00;;;;;;;;4935808;28;46701;-78
2022/06/06 10:50:13;;;;;;;;;2.00;0.00;;;;;;;;4943438;28;45500;-76
2022/06/06 10:52:56;;;;;;;;;2.00;1.00;;;;;;;;4955186;28;45418;-77
2022/06/06 10:55:42;;;;;;;;;2.00;1.00;;;;;;;;4955158;28;45548;-77
2022/06/06 10:58:30;;;;;;;;;10.00;10.00;;;;;;;;4955013;28;45335;-73
2022/06/06 11:01:07;;;;;;;;;1.00;1.00;;;;;;;;4879770;29;45554;-74
2022/06/06 11:03:35;;;;;;;;;0.00;0.00;;;;;;;;4916193;28;45499;-76
2022/06/06 11:06:00;;;;;;;;;0.00;0.00;;;;;;;;4915266;28;45393;-77
2022/06/06 11:08:41;;;;;;;;;2.67;1.00;;;;;;;;4926413;28;45521;-75
2022/06/06 11:11:24;;;;;;;;;3.00;1.00;;;;;;;;4955429;28;45312;-76
2022/06/06 11:14:11;;;;;;;;;1.67;1.00;;;;;;;;4955588;28;45349;-75
2022/06/06 11:16:53;;;;;;;;;0.33;0.33;;;;;;;;4955612;28;45532;-75
2022/06/06 11:19:28;;;;;;;;;0.75;0.75;;;;;;;;4956098;28;45888;-76
2022/06/06 11:21:59;;;;;;;;;1.00;1.00;;;;;;;;4958824;28;45318;-76
2022/06/06 11:24:24;;;;;;;;;1.67;0.00;;;;;;;;4958870;28;45475;-76
2022/06/06 11:27:12;;;;;;;;;1.00;1.00;;;;;;;;4959078;28;45409;-76
2022/06/06 11:29:37;;;;;;;;;1.00;1.00;;;;;;;;4958600;28;45516;-76
2022/06/06 11:32:12;;;;;;;;;1.00;0.33;;;;;;;;4958673;28;45378;-76
2022/06/06 11:34:43;;;;;;;;;2.00;1.00;;;;;;;;4958768;28;45341;-75
2022/06/06 11:37:15;;;;;;;;;2.00;1.00;;;;;;;;4972890;28;45509;-76
2022/06/06 11:39:55;;;;;;;;;1.00;1.00;;;;;;;;5037475;28;46653;-76
2022/06/06 11:42:39;;;;;;;;;1.33;1.00;;;;;;;;5039591;28;45322;-76
2022/06/06 11:45:10;;;;;;;;;3.00;2.00;;;;;;;;5039463;28;45325;-75
2022/06/06 11:47:41;;;;;;;;;0.33;0.33;;;;;;;;5039630;28;45236;-75
2022/06/06 11:50:19;;;;;;;;;0.75;0.50;;;;;;;;5039393;28;46668;-75
2022/06/06 11:53:02;;;;;;;;;1.00;1.00;;;;;;;;5039390;28;45204;-76
2022/06/06 11:55:46;;;;;;;;;2.00;0.00;;;;;;;;5039083;28;45161;-76
2022/06/06 11:58:11;;;;;;;;;1.00;1.00;;;;;;;;5039560;28;45267;-76
2022/06/06 12:00:40;;;;;;;;;1.00;1.00;;;;;;;;5039152;28;46720;-75
2022/06/06 12:03:23;;;;;;;;;1.33;1.33;;;;;;;;5039168;28;45413;-76
2022/06/06 12:06:04;;;;;;;;;2.75;1.00;;;;;;;;5039460;28;45247;-75
2022/06/06 12:09:04;;;;;;;;;3.33;3.33;;;;;;;;5039344;28;45396;-76
2022/06/06 12:11:38;;;;;;;;;4.00;4.00;;;;;;;;5036940;28;46225;-76
2022/06/06 12:14:07;;;;;;;;;17.00;14.00;;;;;;;;5036857;28;45381;-75
2022/06/06 12:16:32;;;;;;;;;33.33;31.00;;;;;;;;5036776;28;45449;-76
2022/06/06 12:19:09;;;;;;;;;11.00;11.00;;;;;;;;5036900;28;45337;-76
2022/06/06 12:21:34;;;;;;;;;5.33;4.33;;;;;;;;5036727;28;45480;-75
2022/06/06 12:24:12;;;;;;;;;6.00;6.00;;;;;;;;5036683;28;45417;-75
2022/06/06 12:27:05;;;;;;;;;9.00;9.00;;;;;;;;5036690;28;45388;-76
2022/06/06 12:29:49;;;;;;;;;11.67;10.67;;;;;;;;5036407;28;45492;-75
2022/06/06 12:32:15;;;;;;;;;6.33;6.00;;;;;;;;5036200;28;47077;-75
2022/06/06 12:34:46;;;;;;;;;5.00;4.00;;;;;;;;5036718;28;45541;-76
2022/06/06 12:37:14;;;;;;;;;3.00;3.00;;;;;;;;5036634;28;45436;-73
2022/06/06 12:39:42;;;;;;;;;1.67;1.00;;;;;;;;5036502;28;45483;-73
2022/06/06 12:42:16;;;;;;;;;7.00;4.67;;;;;;;;5036483;28;46278;-74
2022/06/06 12:44:57;;;;;;;;;5.33;4.00;;;;;;;;5036760;28;45369;-73
2022/06/06 12:47:40;;;;;;;;;4.33;4.33;;;;;;;;5038302;28;45402;-73
2022/06/06 12:50:20;;;;;;;;;5.67;4.00;;;;;;;;5038735;28;45247;-74
2022/06/06 12:53:02;;;;;;;;;9.67;9.00;;;;;;;;5038196;28;46602;-74
2022/06/06 12:55:40;;;;;;;;;18.67;14.67;;;;;;;;5037982;28;45429;-74
2022/06/06 12:58:08;;;;;;;;;6.33;6.33;;;;;;;;5038531;28;45361;-73
2022/06/06 13:03:20;;;;;;;;;3.00;3.00;;;;;;;;5037976;28;45411;-74
2022/06/06 13:05:58;;;;;;;;;2.00;2.00;;;;;;;;5038163;28;45357;-73
2022/06/06 13:08:42;;;;;;;;;2.33;2.33;;;;;;;;5038408;28;45318;-73
2022/06/06 13:11:22;;;;;;;;;4.67;3.00;;;;;;;;5038443;28;45373;-73
2022/06/06 13:13:53;;;;;;;;;15.33;11.33;;;;;;;;5037794;28;46917;-74
2022/06/06 13:16:30;;;;;;;;;6.00;6.00;;;;;;;;5036614;28;45894;-73
2022/06/06 13:19:05;;;;;;;;;20.67;15.67;;;;;;;;5017984;28;45463;-73
2022/06/06 13:21:36;;;;;;;;;52.33;42.00;;;;;;;;5017691;28;45319;-73
2022/06/06 13:24:20;;;;;;;;;9.67;9.67;;;;;;;;5017655;28;46093;-74
2022/06/06 13:26:47;;;;;;;;;16.67;12.67;;;;;;;;5017596;28;45236;-73
2022/06/06 13:29:25;;;;;;;;;4.67;3.00;;;;;;;;5018026;28;45359;-74
2022/06/06 13:32:01;;;;;;;;;2.67;1.33;;;;;;;;5017921;28;45498;-73
2022/06/06 13:34:45;;;;;;;;;2.33;2.33;;;;;;;;5017638;28;45379;-73
2022/06/06 13:37:22;;;;;;;;;1.00;1.00;;;;;;;;5017718;28;45379;-74
2022/06/06 13:40:06;;;;;;;;;1.33;1.33;;;;;;;;5017278;28;45388;-74
2022/06/06 13:42:40;;;;;;;;;2.67;2.00;;;;;;;;5016440;28;45251;-73
2022/06/06 13:45:17;;;;;;;;;6.33;6.33;;;;;;;;5016924;28;46182;-74
2022/06/06 13:47:45;;;;;;;;;4.67;4.67;;;;;;;;5017463;28;45173;-72
2022/06/06 13:50:17;;;;;;;;;2.00;2.00;;;;;;;;5017494;28;45275;-73
2022/06/06 13:52:54;;;;;;;;;1.00;1.00;;;;;;;;5017688;28;45316;-73
2022/06/06 13:55:23;;;;;;;;;1.00;1.00;;;;;;;;5017034;28;46207;-73
2022/06/06 13:57:55;;;;;;;;;1.00;1.00;;;;;;;;5017307;28;45382;-72
2022/06/06 14:00:25;;;;;;;;;1.33;1.00;;;;;;;;5020012;28;45248;-74
2022/06/06 14:03:06;;;;;;;;;1.50;1.50;;;;;;;;5036681;28;45432;-81
2022/06/06 14:05:40;;;;;;;;;1.00;1.00;;;;;;;;5034504;28;45329;-80
2022/06/06 14:08:08;;;;;;;;;1.67;1.00;;;;;;;;5033335;28;45281;-79
2022/06/06 14:10:43;;;;;;;;;1.67;1.67;;;;;;;;5036594;28;45318;-81
2022/06/06 14:13:25;;;;;;;;;2.00;2.00;;;;;;;;5036712;28;45576;-80
2022/06/06 14:15:56;;;;;;;;;3.00;3.00;;;;;;;;5036105;28;46228;-76
2022/06/06 14:18:26;;;;;;;;;7.67;5.33;;;;;;;;5036337;28;45355;-79
2022/06/06 14:20:57;;;;;;;;;1.00;1.00;;;;;;;;5036496;28;45459;-79
2022/06/06 14:23:35;;;;;;;;;1.00;1.00;;;;;;;;5036335;28;45484;-77
2022/06/06 14:26:02;;;;;;;;;3.00;2.00;;;;;;;;5036246;28;45470;-80
2022/06/06 14:28:28;;;;;;;;;1.67;1.67;;;;;;;;5033291;28;45310;-82
2022/06/06 14:30:54;;;;;;;;;1.00;1.00;;;;;;;;5038281;28;45655;-76
2022/06/06 14:33:21;;;;;;;;;3.00;1.00;;;;;;;;5038794;28;45401;-74
2022/06/06 14:35:47;;;;;;;;;1.00;1.00;;;;;;;;5033731;28;45550;-70
2022/06/06 14:38:25;;;;;;;;;2.00;2.00;;;;;;;;5035769;28;45429;-75
2022/06/06 14:40:52;;;;;;;;;1.00;1.00;;;;;;;;5033861;28;45234;-76
2022/06/06 14:43:21;;;;;;;;;1.00;1.00;;;;;;;;5038933;28;45498;-72
2022/06/06 14:45:52;;;;;;;;;1.00;1.00;;;;;;;;5037389;28;45568;-77
2022/06/06 14:48:18;;;;;;;;;5.67;5.67;;;;;;;;5037241;28;45415;-74
2022/06/06 14:50:58;;;;;;;;;2.33;1.67;;;;;;;;5039473;28;45393;-77
2022/06/06 14:53:28;;;;;;;;;1.00;1.00;;;;;;;;5041231;28;45402;-78
2022/06/06 14:55:57;;;;;;;;;1.67;1.00;;;;;;;;5039386;28;46064;-77
2022/06/06 14:58:26;;;;;;;;;0.00;0.00;;;;;;;;5040239;28;45461;-80
2022/06/06 15:00:59;;;;;;;;;0.00;0.00;;;;;;;;5041088;28;45488;-81
2022/06/06 15:03:35;;;;;;;;;0.75;0.00;;;;;;;;5037588;28;45435;-80
2022/06/06 15:06:08;;;;;;;;;2.67;2.00;;;;;;;;5041615;28;45527;-79
2022/06/06 15:08:35;;;;;;;;;1.00;1.00;;;;;;;;5038889;28;45239;-76
2022/06/06 15:11:07;;;;;;;;;1.67;1.00;;;;;;;;5040174;28;45409;-75
2022/06/06 15:13:36;;;;;;;;;1.00;1.00;;;;;;;;5039494;28;45532;-78
2022/06/06 15:16:06;;;;;;;;;1.00;1.00;;;;;;;;5038576;28;46933;-77
2022/06/06 15:18:34;;;;;;;;;0.75;0.75;;;;;;;;5042092;28;45402;-83
2022/06/06 15:21:00;;;;;;;;;1.67;1.00;;;;;;;;5036289;28;45235;-82
2022/06/06 15:23:41;;;;;;;;;4.00;1.00;;;;;;;;5038868;28;45734;-76
2022/06/06 15:26:26;;;;;;;;;1.33;1.00;;;;;;;;5036243;28;46349;-77
2022/06/06 15:28:54;;;;;;;;;2.00;2.00;;;;;;;;5038146;28;45459;-76
2022/06/06 15:31:35;;;;;;;;;0.00;0.00;;;;;;;;5038443;28;45416;-78
2022/06/06 15:34:19;;;;;;;;;1.67;1.00;;;;;;;;5038732;28;45532;-81
2022/06/06 15:36:45;;;;;;;;;1.00;1.00;;;;;;;;5037903;28;47330;-79
2022/06/06 15:39:15;;;;;;;;;1.67;1.33;;;;;;;;5037738;28;45441;-76
2022/06/06 15:41:59;;;;;;;;;1.00;1.00;;;;;;;;5038403;28;45385;-70